createdAt,value
2017-06-03T04:56:44.331Z,3.33
2017-06-03T04:59:11.107Z,4.40
2017-06-03T05:01:37.855Z,3.40
2017-06-03T05:06:37.723Z,2.70
2017-06-03T05:09:04.643Z,3.13
2017-06-03T05:11:31.402Z,2.47
2017-06-03T05:13:58.159Z,2.17
2017-06-03T05:16:24.956Z,2.77
2017-06-03T05:18:51.773Z,2.10
2017-06-03T05:21:18.533Z,2.27
2017-06-03T05:23:45.330Z,2.40
2017-06-03T05:26:12.095Z,2.10
2017-06-03T05:28:38.868Z,3.20
2017-06-03T05:31:05.667Z,2.20
2017-06-03T05:33:32.423Z,2.30
2017-06-03T05:35:59.346Z,2.33
2017-06-03T05:38:26.131Z,2.43
2017-06-03T05:40:52.872Z,2.57
2017-06-03T05:43:19.636Z,2.10
2017-06-03T05:45:46.462Z,2.47
2017-06-03T05:48:13.235Z,2.43
2017-06-03T05:50:39.998Z,2.43
2017-06-03T05:53:06.818Z,2.10
2017-06-03T05:55:33.638Z,1.83
2017-06-03T05:58:00.446Z,2.43
2017-06-03T06:00:27.223Z,2.00
2017-06-03T06:02:53.971Z,2.20
2017-06-03T06:05:20.771Z,2.50
2017-06-03T06:07:47.577Z,2.10
2017-06-03T06:10:14.355Z,2.23
2017-06-03T06:12:41.151Z,2.67
2017-06-03T06:15:07.958Z,2.57
2017-06-03T06:17:34.728Z,2.20
2017-06-03T06:20:01.513Z,2.30
2017-06-03T06:22:28.322Z,1.93
2017-06-03T06:24:55.084Z,2.40
2017-06-03T06:27:21.836Z,2.13
2017-06-03T06:29:48.660Z,2.10
2017-06-03T06:32:15.425Z,2.70
2017-06-03T06:34:42.201Z,2.33
2017-06-03T06:37:09.010Z,2.73
2017-06-03T06:39:35.790Z,2.67
2017-06-03T06:42:02.536Z,2.33
2017-06-03T06:44:29.397Z,2.50
2017-06-03T06:46:56.164Z,2.80
2017-06-03T06:49:22.931Z,2.60
2017-06-03T06:51:49.754Z,2.37
2017-06-03T06:54:16.555Z,2.23
2017-06-03T06:56:43.340Z,2.80
2017-06-03T06:59:10.137Z,3.00
2017-06-03T07:01:36.919Z,2.57
2017-06-03T07:04:03.664Z,2.47
2017-06-03T07:06:30.501Z,2.80
2017-06-03T07:08:57.271Z,2.30
2017-06-03T07:11:24.048Z,2.30
2017-06-03T07:13:50.878Z,3.10
2017-06-03T07:16:17.641Z,2.47
2017-06-03T07:18:44.403Z,2.60
2017-06-03T07:21:11.215Z,3.73
2017-06-03T07:23:37.989Z,2.87
2017-06-03T07:26:04.788Z,3.10
2017-06-03T07:28:31.589Z,3.07
2017-06-03T07:30:58.366Z,2.80
2017-06-03T07:33:25.150Z,2.60
2017-06-03T07:35:51.994Z,2.70
2017-06-03T07:38:18.813Z,3.13
2017-06-03T07:40:45.595Z,3.00
2017-06-03T07:43:12.431Z,2.73
2017-06-03T07:45:39.190Z,3.10
2017-06-03T07:48:05.978Z,3.00
2017-06-03T07:50:32.837Z,2.90
2017-06-03T07:52:59.652Z,3.40
2017-06-03T07:55:26.418Z,2.93
2017-06-03T07:57:53.239Z,3.20
2017-06-03T08:00:20.003Z,2.50
2017-06-03T08:02:46.787Z,2.90
2017-06-03T08:05:13.586Z,3.30
2017-06-03T08:07:40.393Z,4.20
2017-06-03T08:10:07.156Z,3.70
2017-06-03T08:12:33.972Z,3.63
2017-06-03T08:15:00.760Z,4.13
2017-06-03T08:17:27.590Z,3.60
2017-06-03T08:19:54.420Z,3.83
2017-06-03T08:22:21.285Z,3.80
2017-06-03T08:24:48.076Z,4.10
2017-06-03T08:27:14.899Z,4.20
2017-06-03T08:29:41.665Z,4.17
2017-06-03T08:32:08.443Z,4.43
2017-06-03T08:34:35.263Z,4.63
2017-06-03T08:37:02.048Z,4.73
2017-06-03T08:39:28.824Z,4.77
2017-06-03T08:41:55.630Z,4.50
2017-06-03T08:44:22.421Z,3.90
2017-06-03T08:46:49.194Z,4.20
2017-06-03T08:49:15.992Z,3.23
2017-06-03T08:51:42.738Z,3.17
2017-06-03T08:54:09.506Z,2.53
2017-06-03T08:56:36.319Z,3.00
2017-06-03T08:59:03.071Z,3.27
2017-06-03T09:01:29.873Z,3.37
2017-06-03T09:03:56.687Z,2.70
2017-06-03T09:06:23.503Z,3.20
2017-06-03T09:08:50.270Z,3.40
2017-06-03T09:11:17.070Z,2.90
2017-06-03T09:13:43.818Z,3.00
2017-06-03T09:16:10.559Z,2.90
2017-06-03T09:18:37.351Z,3.80
2017-06-03T09:21:04.118Z,2.77
2017-06-03T09:23:30.909Z,3.10
2017-06-03T09:25:57.707Z,3.43
2017-06-03T09:28:24.566Z,3.07
2017-06-03T09:30:51.350Z,2.53
2017-06-03T09:33:18.155Z,3.90
2017-06-03T09:35:44.931Z,3.63
2017-06-03T09:38:11.724Z,3.37
2017-06-03T09:40:38.625Z,3.23
2017-06-03T09:43:05.396Z,3.50
2017-06-03T09:45:32.147Z,3.50
2017-06-03T09:47:58.946Z,3.57
2017-06-03T09:50:25.791Z,3.53
2017-06-03T09:52:52.623Z,3.03
2017-06-03T09:55:19.447Z,3.33
2017-06-03T09:57:46.204Z,3.17
2017-06-03T10:00:13.180Z,4.00
2017-06-03T10:02:40.030Z,3.53
2017-06-03T10:05:06.788Z,3.77
2017-06-03T10:07:33.558Z,3.87
2017-06-03T10:10:00.359Z,3.57
2017-06-03T10:12:27.836Z,3.77
2017-06-03T10:14:54.599Z,3.50
2017-06-03T10:17:21.426Z,3.60
2017-06-03T10:19:48.197Z,4.10
2017-06-03T10:22:14.977Z,3.93
2017-06-03T10:24:41.791Z,3.57
2017-06-03T10:27:08.551Z,3.60
2017-06-03T10:29:35.365Z,3.70
2017-06-03T10:32:02.161Z,4.23
2017-06-03T10:34:28.937Z,3.43
2017-06-03T10:36:55.755Z,3.30
2017-06-03T10:39:22.562Z,4.10
2017-06-03T10:41:49.346Z,3.57
2017-06-03T10:44:16.113Z,4.23
2017-06-03T10:46:42.932Z,3.87
2017-06-03T10:49:09.711Z,4.13
2017-06-03T10:51:36.483Z,4.47
2017-06-03T10:54:03.302Z,5.77
2017-06-03T10:56:30.078Z,3.80
2017-06-03T10:58:56.852Z,4.83
2017-06-03T11:01:23.671Z,4.60
2017-06-03T11:03:50.441Z,3.90
2017-06-03T11:06:17.195Z,4.20
2017-06-03T11:08:43.987Z,4.20
2017-06-03T11:11:12.246Z,4.20
2017-06-03T11:13:39.590Z,4.27
2017-06-03T11:16:06.422Z,4.63
2017-06-03T11:18:33.161Z,4.73
2017-06-03T11:21:00.120Z,4.00
2017-06-03T11:23:26.950Z,4.10
2017-06-03T11:25:53.733Z,4.50
2017-06-03T11:28:20.514Z,4.53
2017-06-03T11:30:47.381Z,4.40
2017-06-03T11:33:14.143Z,4.90
2017-06-03T11:35:40.965Z,4.90
2017-06-03T11:38:07.773Z,4.13
2017-06-03T11:40:34.531Z,4.57
2017-06-03T11:43:01.303Z,4.27
2017-06-03T11:45:28.129Z,5.43
2017-06-03T11:47:54.875Z,4.90
2017-06-03T11:50:21.674Z,5.73
2017-06-03T11:52:48.471Z,5.13
2017-06-03T11:55:15.237Z,5.77
2017-06-03T11:57:42.002Z,4.30
2017-06-03T12:00:08.817Z,5.40
2017-06-03T12:02:35.610Z,5.60
2017-06-03T12:05:02.375Z,5.63
2017-06-03T12:07:29.211Z,4.97
2017-06-03T12:09:55.998Z,5.40
2017-06-03T12:12:22.744Z,5.70
2017-06-03T12:14:49.531Z,5.37
2017-06-03T12:17:16.297Z,5.93
2017-06-03T12:19:43.035Z,5.37
2017-06-03T12:22:09.846Z,5.23
2017-06-03T12:24:36.634Z,6.20
2017-06-03T12:27:03.395Z,5.83
2017-06-03T12:29:30.210Z,5.50
2017-06-03T12:31:56.979Z,5.90
2017-06-03T12:34:23.725Z,5.90
2017-06-03T12:36:50.538Z,6.40
2017-06-03T12:39:17.303Z,7.20
2017-06-03T12:41:44.083Z,6.10
2017-06-03T12:44:10.907Z,6.20
2017-06-03T12:46:37.670Z,4.60
2017-06-03T12:49:04.471Z,5.43
2017-06-03T12:51:31.259Z,4.93
2017-06-03T12:53:58.038Z,6.30
2017-06-03T12:56:24.785Z,6.23
2017-06-03T12:58:51.565Z,5.90
2017-06-03T13:01:18.355Z,5.87
2017-06-03T13:03:45.116Z,6.90
2017-06-03T13:06:11.911Z,7.17
2017-06-03T13:08:38.665Z,6.43
2017-06-03T13:11:05.420Z,6.47
2017-06-03T13:13:32.203Z,6.63
2017-06-03T13:15:58.947Z,6.70
2017-06-03T13:18:25.726Z,6.20
2017-06-03T13:20:52.516Z,6.60
2017-06-03T13:23:19.303Z,6.70
2017-06-03T13:25:46.060Z,7.37
2017-06-03T13:28:12.900Z,6.50
2017-06-03T13:30:39.669Z,6.17
2017-06-03T13:33:06.424Z,5.87
2017-06-03T13:35:33.315Z,5.73
2017-06-03T13:38:00.092Z,6.47
2017-06-03T13:40:26.884Z,6.33
2017-06-03T13:42:53.679Z,6.00
2017-06-03T13:45:20.450Z,5.80
2017-06-03T13:50:21.407Z,5.90
2017-06-03T13:52:48.224Z,6.33
2017-06-03T13:55:15.088Z,6.80
2017-06-03T13:57:41.897Z,6.10
2017-06-03T14:00:08.691Z,6.20
2017-06-03T14:02:35.478Z,6.40
2017-06-03T14:05:02.285Z,6.53
2017-06-03T14:07:29.040Z,6.40
2017-06-03T14:09:55.788Z,7.90
2017-06-03T14:12:22.619Z,7.30
2017-06-03T14:14:49.452Z,6.50
2017-06-03T14:17:16.242Z,6.50
2017-06-03T14:19:43.135Z,6.30
2017-06-03T14:22:09.907Z,5.80
2017-06-03T14:24:36.805Z,5.70
2017-06-03T14:27:03.598Z,8.30
2017-06-03T14:29:30.364Z,6.70
2017-06-03T14:31:57.154Z,7.00
2017-06-03T14:34:23.939Z,6.50
2017-06-03T14:36:50.703Z,6.10
2017-06-03T14:39:17.500Z,7.70
2017-06-03T14:41:44.321Z,7.33
2017-06-03T14:44:11.079Z,7.53
2017-06-03T14:46:37.870Z,7.30
2017-06-03T14:49:04.694Z,7.00
2017-06-03T14:51:31.462Z,6.57
2017-06-03T14:53:58.318Z,6.43
2017-06-03T14:56:25.126Z,7.37
2017-06-03T14:58:51.934Z,7.03
2017-06-03T15:01:18.720Z,7.47
2017-06-03T15:03:45.642Z,6.40
2017-06-03T15:06:12.414Z,7.57
2017-06-03T15:08:39.310Z,8.07
2017-06-03T15:11:06.095Z,8.27
2017-06-03T15:13:32.843Z,7.10
2017-06-03T15:15:59.652Z,7.40
2017-06-03T15:18:26.453Z,6.80
2017-06-03T15:20:53.258Z,7.67
2017-06-03T15:23:20.050Z,7.37
2017-06-03T15:25:46.850Z,7.57
2017-06-03T15:28:13.652Z,7.43
2017-06-03T15:30:40.537Z,7.03
2017-06-03T15:33:07.325Z,7.00
2017-06-03T15:35:34.130Z,6.77
2017-06-03T15:38:00.907Z,7.70
2017-06-03T15:40:27.710Z,7.47
2017-06-03T15:42:54.498Z,7.60
2017-06-03T15:45:21.269Z,7.63
2017-06-03T15:47:48.075Z,7.17
2017-06-03T15:50:14.852Z,7.27
2017-06-03T15:52:41.626Z,7.00
2017-06-03T15:55:08.428Z,6.80
2017-06-03T15:57:35.207Z,7.17
2017-06-03T16:00:02.000Z,6.50
2017-06-03T16:02:29.136Z,7.07
2017-06-03T16:04:55.901Z,7.50
2017-06-03T16:07:22.668Z,6.70
2017-06-03T16:09:49.645Z,7.00
2017-06-03T16:12:16.399Z,7.60
2017-06-03T16:14:44.986Z,7.60
2017-06-03T16:17:11.780Z,6.97
2017-06-03T16:19:38.538Z,7.13
2017-06-03T16:22:05.306Z,7.47
2017-06-03T16:24:32.100Z,8.90
2017-06-03T16:26:58.864Z,7.50
2017-06-03T16:29:25.610Z,7.50
2017-06-03T16:31:52.392Z,7.60
2017-06-03T16:34:19.220Z,6.60
2017-06-03T16:36:45.959Z,7.30
2017-06-03T16:39:12.760Z,7.60
2017-06-03T16:41:39.511Z,8.10
2017-06-03T16:44:06.279Z,7.60
2017-06-03T16:46:33.098Z,6.63
2017-06-03T16:48:59.844Z,7.50
2017-06-03T16:51:26.611Z,7.60
2017-06-03T16:53:53.411Z,7.83
2017-06-03T16:56:20.164Z,8.00
2017-06-03T16:58:46.923Z,7.07
2017-06-03T17:01:13.737Z,7.47
2017-06-03T17:03:40.510Z,6.53
2017-06-03T17:06:07.290Z,7.97
2017-06-03T17:08:34.122Z,8.00
2017-06-03T17:11:00.879Z,8.53
2017-06-03T17:13:27.650Z,7.90
2017-06-03T17:15:54.437Z,7.90
2017-06-03T17:18:21.192Z,8.00
2017-06-03T17:20:47.966Z,9.10
2017-06-03T17:23:14.743Z,8.33
2017-06-03T17:25:41.591Z,6.77
2017-06-03T17:28:08.361Z,7.93
2017-06-03T17:30:35.151Z,8.17
2017-06-03T17:33:01.921Z,7.97
2017-06-03T17:35:28.710Z,8.00
2017-06-03T17:37:55.506Z,9.73
2017-06-03T17:40:22.298Z,8.17
2017-06-03T17:42:49.082Z,8.40
2017-06-03T17:45:15.903Z,8.60
2017-06-03T17:47:42.677Z,7.63
2017-06-03T17:50:09.434Z,7.73
2017-06-03T17:52:36.256Z,8.30
2017-06-03T17:55:03.050Z,8.10
2017-06-03T17:57:29.798Z,8.60
2017-06-03T17:59:56.590Z,8.90
2017-06-03T18:02:23.366Z,8.40
2017-06-03T18:04:50.127Z,8.10
2017-06-03T18:07:16.933Z,9.30
2017-06-03T18:09:43.702Z,9.97
2017-06-03T18:12:10.510Z,9.00
2017-06-03T18:14:37.328Z,9.47
2017-06-03T18:17:04.113Z,11.60
2017-06-03T18:19:30.880Z,8.87
2017-06-03T18:21:57.734Z,10.50
2017-06-03T18:24:30.318Z,9.93
2017-06-03T18:26:57.193Z,8.10
2017-06-03T18:29:23.965Z,9.57
2017-06-03T18:31:50.773Z,8.77
2017-06-03T18:34:17.639Z,9.40
2017-06-03T18:36:44.414Z,9.83
2017-06-03T18:39:11.194Z,10.10
2017-06-03T18:41:37.979Z,8.80
2017-06-03T18:44:04.750Z,9.53
2017-06-03T18:46:31.569Z,9.77
2017-06-03T18:48:58.356Z,9.33
2017-06-03T18:51:25.114Z,9.57
2017-06-03T18:53:51.876Z,9.10
2017-06-03T18:56:18.680Z,8.93
2017-06-03T18:58:45.439Z,13.20
2017-06-03T19:01:12.265Z,9.43
2017-06-03T19:03:39.849Z,9.90
2017-06-03T19:06:06.590Z,9.20
2017-06-03T19:08:33.394Z,10.10
2017-06-03T19:11:00.204Z,9.00
2017-06-03T19:13:26.970Z,9.13
2017-06-03T19:15:53.717Z,9.37
2017-06-03T19:18:20.523Z,9.07
2017-06-03T19:20:47.276Z,9.47
2017-06-03T19:23:14.029Z,9.90
2017-06-03T19:25:40.823Z,10.30
2017-06-03T19:28:07.597Z,11.13
2017-06-03T19:30:34.395Z,10.87
2017-06-03T19:33:01.212Z,11.27
2017-06-03T19:35:27.988Z,10.83
2017-06-03T19:37:54.790Z,10.90
2017-06-03T19:40:21.602Z,12.63
2017-06-03T19:42:48.379Z,11.60
2017-06-03T19:45:15.136Z,13.17
2017-06-03T19:47:41.959Z,12.60
2017-06-03T19:50:08.748Z,12.57
2017-06-03T19:52:35.522Z,14.33
2017-06-03T19:55:02.326Z,12.90
2017-06-03T19:57:29.118Z,12.60
2017-06-03T19:59:55.922Z,13.93
2017-06-03T20:02:32.775Z,12.77
2017-06-03T20:04:59.647Z,14.40
2017-06-03T20:07:26.430Z,14.10
2017-06-03T20:09:53.278Z,14.33
2017-06-03T20:12:20.054Z,14.30
2017-06-03T20:14:46.822Z,13.67
2017-06-03T20:17:13.705Z,14.50
2017-06-03T20:19:40.475Z,14.43
2017-06-03T20:22:07.256Z,15.47
2017-06-03T20:24:34.070Z,16.20
2017-06-03T20:27:00.830Z,15.30
2017-06-03T20:29:27.635Z,15.40
2017-06-03T20:31:54.423Z,16.30
2017-06-03T20:34:21.188Z,15.40
2017-06-03T20:36:47.955Z,17.47
2017-06-03T20:39:15.208Z,17.47
2017-06-03T20:41:41.971Z,18.40
2017-06-03T20:44:08.732Z,16.67
2017-06-03T20:46:35.559Z,15.90
2017-06-03T20:49:02.374Z,16.03
2017-06-03T20:51:29.163Z,16.13
2017-06-03T20:53:55.950Z,16.60
2017-06-03T20:56:22.762Z,16.53
2017-06-03T20:58:49.548Z,15.70
2017-06-03T21:01:16.390Z,17.03
2017-06-03T21:03:43.153Z,17.90
2017-06-03T21:06:09.923Z,16.50
2017-06-03T21:08:36.727Z,16.47
2017-06-03T21:11:03.504Z,17.30
2017-06-03T21:13:30.284Z,15.37
2017-06-03T21:15:57.094Z,17.57
2017-06-03T21:18:23.889Z,15.80
2017-06-03T21:20:50.658Z,17.63
2017-06-03T21:23:17.448Z,15.17
2017-06-03T21:25:44.246Z,15.90
2017-06-03T21:28:11.011Z,16.17
2017-06-03T21:30:37.804Z,15.50
2017-06-03T21:33:04.578Z,15.67
2017-06-03T21:35:31.335Z,15.17
2017-06-03T21:37:58.155Z,14.93
2017-06-03T21:40:24.899Z,16.03
2017-06-03T21:42:51.655Z,16.13
2017-06-03T21:45:18.467Z,16.13
2017-06-03T21:47:45.238Z,17.27
2017-06-03T21:50:12.015Z,21.23
2017-06-03T21:52:38.827Z,15.37
2017-06-03T21:55:05.628Z,14.57
2017-06-03T21:57:32.402Z,16.23
2017-06-03T21:59:59.191Z,15.53
2017-06-03T22:02:25.935Z,14.60
2017-06-03T22:04:52.701Z,13.50
2017-06-03T22:07:19.514Z,14.67
2017-06-03T22:09:46.255Z,15.30
2017-06-03T22:12:13.057Z,15.50
2017-06-03T22:14:39.847Z,14.90
2017-06-03T22:17:06.618Z,16.20
2017-06-03T22:19:33.475Z,15.63
2017-06-03T22:22:00.271Z,15.60
